Terminal Aerodrome Forecast
Issued by NWS Grand Junction, CO

Current Version | Previous Version | Text Only | Print | Product List | Glossary On
Versions: 1 2 3 4 5 6 7 8 9 10 11 12 13
000
FTUS45 KGJT 272341
TAFGJT
TAF
KGJT 272341Z 2800/2824 32015G25KT P6SM FEW060 BKN080 OVC090
     FM280300 30007KT P6SM BKN120
     FM280700 VRB03KT P6SM SCT140
     FM281300 VRB03KT P6SM VCSH SCT120
     FM281600 29004KT P6SM VCSH BKN100
     FM281800 29005KT P6SM BKN100=

USA.gov is the U.S. government's official web portal to all federal, state and local government web resources and services.